<?xml version="1.0" encoding="UTF-8" standalone="no" ?>
<gpx xmlns="http://www.topografix.com/GPX/1/1" xmlns:xsi="http://www.w3.org/2001/XMLSchema-instance" xsi:schemaLocation="http://www.topografix.com/GPX/1/1 http://www.topografix.com/GPX/1/1/gpx.xsd" version="1.1" creator="VisuGPX - https://www.visugpx.com">
  <metadata>
    <name>Rando_Maurepas_Foret Manet2</name>
  </metadata>
  <trk>
    <name><![CDATA[Rando_Maurepas_Foret Manet2]]></name>
    <trkseg>
      <trkpt lat="48.75594" lon="1.96845">
        <ele>168</ele>
        <extensions>
          <visugpx:TrkExtension xmlns:visugpx="https://www.visugpx.com/editgpx/">
            <visugpx:node>5</visugpx:node>
            </visugpx:TrkExtension>
        </extensions>
      </trkpt>
      <trkpt lat="48.75591" lon="1.96851">
        <ele>168</ele>
      </trkpt>
      <trkpt lat="48.7558" lon="1.96898">
        <ele>168</ele>
      </trkpt>
      <trkpt lat="48.7558" lon="1.96904">
        <ele>168</ele>
      </trkpt>
      <trkpt lat="48.75542" lon="1.97043">
        <ele>167.5</ele>
        <extensions>
          <visugpx:TrkExtension xmlns:visugpx="https://www.visugpx.com/editgpx/">
            <visugpx:node>2</visugpx:node>
            </visugpx:TrkExtension>
        </extensions>
      </trkpt>
      <trkpt lat="48.75485" lon="1.97255">
        <ele>167.1</ele>
      </trkpt>
      <trkpt lat="48.75317" lon="1.97898">
        <ele>164</ele>
        <extensions>
          <visugpx:TrkExtension xmlns:visugpx="https://www.visugpx.com/editgpx/">
            <visugpx:node>4</visugpx:node>
            </visugpx:TrkExtension>
        </extensions>
      </trkpt>
      <trkpt lat="48.75316" lon="1.97898">
        <ele>164</ele>
        <extensions>
          <visugpx:TrkExtension xmlns:visugpx="https://www.visugpx.com/editgpx/">
            <visugpx:node>3</visugpx:node>
            </visugpx:TrkExtension>
        </extensions>
      </trkpt>
      <trkpt lat="48.75422" lon="1.98147">
        <ele>170.2</ele>
      </trkpt>
      <trkpt lat="48.75155" lon="1.98554">
        <ele>160.7</ele>
      </trkpt>
      <trkpt lat="48.75151" lon="1.98559">
        <ele>160.5</ele>
      </trkpt>
      <trkpt lat="48.75135" lon="1.98883">
        <ele>167</ele>
      </trkpt>
      <trkpt lat="48.75091" lon="1.98865">
        <ele>166.2</ele>
      </trkpt>
      <trkpt lat="48.75089" lon="1.98865">
        <ele>166.1</ele>
      </trkpt>
      <trkpt lat="48.75082" lon="1.9887">
        <ele>165.6</ele>
      </trkpt>
      <trkpt lat="48.75078" lon="1.9887">
        <ele>165.3</ele>
      </trkpt>
      <trkpt lat="48.75067" lon="1.98863">
        <ele>164.8</ele>
      </trkpt>
      <trkpt lat="48.75062" lon="1.98857">
        <ele>164.5</ele>
      </trkpt>
      <trkpt lat="48.75058" lon="1.98852">
        <ele>164.2</ele>
      </trkpt>
      <trkpt lat="48.7505" lon="1.98847">
        <ele>163.5</ele>
      </trkpt>
      <trkpt lat="48.75048" lon="1.98848">
        <ele>163.3</ele>
      </trkpt>
      <trkpt lat="48.75044" lon="1.9886">
        <ele>163.1</ele>
      </trkpt>
      <trkpt lat="48.75045" lon="1.98902">
        <ele>164.3</ele>
      </trkpt>
      <trkpt lat="48.75029" lon="1.98913">
        <ele>164.7</ele>
      </trkpt>
      <trkpt lat="48.75017" lon="1.98941">
        <ele>164.5</ele>
      </trkpt>
      <trkpt lat="48.75017" lon="1.98973">
        <ele>165.2</ele>
      </trkpt>
      <trkpt lat="48.75008" lon="1.98981">
        <ele>164.6</ele>
      </trkpt>
      <trkpt lat="48.74994" lon="1.99005">
        <ele>163.5</ele>
      </trkpt>
      <trkpt lat="48.74962" lon="1.99039">
        <ele>161.1</ele>
      </trkpt>
      <trkpt lat="48.74948" lon="1.9909">
        <ele>160.5</ele>
      </trkpt>
      <trkpt lat="48.74922" lon="1.991">
        <ele>158.9</ele>
      </trkpt>
      <trkpt lat="48.74911" lon="1.99133">
        <ele>159.6</ele>
      </trkpt>
      <trkpt lat="48.74914" lon="1.99161">
        <ele>159.9</ele>
      </trkpt>
      <trkpt lat="48.74891" lon="1.99208">
        <ele>159.1</ele>
      </trkpt>
      <trkpt lat="48.74889" lon="1.99252">
        <ele>159.1</ele>
      </trkpt>
      <trkpt lat="48.74907" lon="1.99284">
        <ele>161.3</ele>
      </trkpt>
      <trkpt lat="48.74915" lon="1.99329">
        <ele>162.7</ele>
      </trkpt>
      <trkpt lat="48.74916" lon="1.99358">
        <ele>162.9</ele>
      </trkpt>
      <trkpt lat="48.74899" lon="1.9939">
        <ele>161.7</ele>
      </trkpt>
      <trkpt lat="48.749" lon="1.99389">
        <ele>153.883518</ele>
        <time>2022-05-07T11:53:35.834Z</time>
      </trkpt>
      <trkpt lat="48.74874" lon="1.99418">
        <ele>153.397254</ele>
        <time>2022-05-07T11:54:09.775Z</time>
      </trkpt>
      <trkpt lat="48.74865" lon="1.99443">
        <ele>153.130438</ele>
        <time>2022-05-07T11:54:28.415Z</time>
      </trkpt>
      <trkpt lat="48.74864" lon="1.99475">
        <ele>152.813042</ele>
        <time>2022-05-07T11:54:50.415Z</time>
      </trkpt>
      <trkpt lat="48.74878" lon="1.99506">
        <ele>152.45314</ele>
        <time>2022-05-07T11:55:15.608Z</time>
      </trkpt>
      <trkpt lat="48.74884" lon="1.99536">
        <ele>152.152548</ele>
        <time>2022-05-07T11:55:36.554Z</time>
      </trkpt>
      <trkpt lat="48.7488" lon="1.99564">
        <ele>151.848127</ele>
        <time>2022-05-07T11:55:56.206Z</time>
      </trkpt>
      <trkpt lat="48.74866" lon="1.99594">
        <ele>151.399577</ele>
        <time>2022-05-07T11:56:21.416Z</time>
      </trkpt>
      <trkpt lat="48.7485" lon="1.99654">
        <ele>150.620842</ele>
        <time>2022-05-07T11:57:05.166Z</time>
      </trkpt>
      <trkpt lat="48.74869" lon="1.99799">
        <ele>148.819585</ele>
        <time>2022-05-07T11:58:46.296Z</time>
      </trkpt>
      <trkpt lat="48.74872" lon="1.99855">
        <ele>148.083022</ele>
        <time>2022-05-07T11:59:25.145Z</time>
      </trkpt>
      <trkpt lat="48.74865" lon="1.99875">
        <ele>147.770516</ele>
        <time>2022-05-07T11:59:41.626Z</time>
      </trkpt>
      <trkpt lat="48.74861" lon="1.99912">
        <ele>147.273662</ele>
        <time>2022-05-07T12:00:06.750Z</time>
      </trkpt>
      <trkpt lat="48.74844" lon="1.99942">
        <ele>146.751722</ele>
        <time>2022-05-07T12:00:33.571Z</time>
      </trkpt>
      <trkpt lat="48.74842" lon="1.9996">
        <ele>146.495795</ele>
        <time>2022-05-07T12:00:46.587Z</time>
      </trkpt>
      <trkpt lat="48.74834" lon="1.99964">
        <ele>146.314721</ele>
        <time>2022-05-07T12:00:58.792Z</time>
      </trkpt>
      <trkpt lat="48.74823" lon="1.99986">
        <ele>145.945753</ele>
        <time>2022-05-07T12:01:21.903Z</time>
      </trkpt>
      <trkpt lat="48.74818" lon="2.00012">
        <ele>145.576391</ele>
        <time>2022-05-07T12:01:45.988Z</time>
      </trkpt>
      <trkpt lat="48.74798" lon="2.00035">
        <ele>145.061028</ele>
        <time>2022-05-07T12:02:18.459Z</time>
      </trkpt>
      <trkpt lat="48.74774" lon="2.00045">
        <ele>145.020522</ele>
        <time>2022-05-07T12:02:51.309Z</time>
      </trkpt>
      <trkpt lat="48.74753" lon="2.0008">
        <ele>145.097869</ele>
        <time>2022-05-07T12:03:30.580Z</time>
      </trkpt>
      <trkpt lat="48.74729" lon="2.00093">
        <ele>145.160991</ele>
        <time>2022-05-07T12:03:56.117Z</time>
      </trkpt>
      <trkpt lat="48.74714" lon="2.00121">
        <ele>145.220697</ele>
        <time>2022-05-07T12:04:21.652Z</time>
      </trkpt>
      <trkpt lat="48.74704" lon="2.00162">
        <ele>145.292218</ele>
        <time>2022-05-07T12:04:52.300Z</time>
      </trkpt>
      <trkpt lat="48.74706" lon="2.00198">
        <ele>145.351731</ele>
        <time>2022-05-07T12:05:17.197Z</time>
      </trkpt>
      <trkpt lat="48.74694" lon="2.0022">
        <ele>145.399854</ele>
        <time>2022-05-07T12:05:37.377Z</time>
      </trkpt>
      <trkpt lat="48.74685" lon="2.00227">
        <ele>145.408528</ele>
        <time>2022-05-07T12:05:47.496Z</time>
      </trkpt>
      <trkpt lat="48.74676" lon="2.00251">
        <ele>145.363537</ele>
        <time>2022-05-07T12:06:06.259Z</time>
      </trkpt>
      <trkpt lat="48.74678" lon="2.00277">
        <ele>145.032244</ele>
        <time>2022-05-07T12:08:24.256Z</time>
      </trkpt>
      <trkpt lat="48.74682" lon="2.00267">
        <ele>145.01275</ele>
        <time>2022-05-07T12:08:32.764Z</time>
        <extensions>
          <visugpx:TrkExtension xmlns:visugpx="https://www.visugpx.com/editgpx/">
            <visugpx:node>6</visugpx:node>
            </visugpx:TrkExtension>
        </extensions>
      </trkpt>
      <trkpt lat="48.74678" lon="2.00277">
        <ele>128.8</ele>
      </trkpt>
      <trkpt lat="48.74661" lon="2.00306">
        <ele>128</ele>
      </trkpt>
      <trkpt lat="48.74619" lon="2.00377">
        <ele>137.7</ele>
      </trkpt>
      <trkpt lat="48.74611" lon="2.00388">
        <ele>139</ele>
      </trkpt>
      <trkpt lat="48.74614" lon="2.00393">
        <ele>138.5</ele>
      </trkpt>
      <trkpt lat="48.74556" lon="2.00477">
        <ele>143.6</ele>
      </trkpt>
      <trkpt lat="48.7456" lon="2.00496">
        <ele>141.2</ele>
      </trkpt>
      <trkpt lat="48.74563" lon="2.00519">
        <ele>138.3</ele>
      </trkpt>
      <trkpt lat="48.74554" lon="2.00564">
        <ele>136.8</ele>
      </trkpt>
      <trkpt lat="48.74548" lon="2.00616">
        <ele>135.3</ele>
      </trkpt>
      <trkpt lat="48.74533" lon="2.00681">
        <ele>133.8</ele>
      </trkpt>
      <trkpt lat="48.74528" lon="2.00686">
        <ele>134.6</ele>
      </trkpt>
      <trkpt lat="48.74526" lon="2.00701">
        <ele>134</ele>
        <extensions>
          <visugpx:TrkExtension xmlns:visugpx="https://www.visugpx.com/editgpx/">
            <visugpx:node>7</visugpx:node>
            </visugpx:TrkExtension>
        </extensions>
      </trkpt>
      <trkpt lat="48.74522" lon="2.00734">
        <ele>132.6</ele>
      </trkpt>
      <trkpt lat="48.74516" lon="2.00745">
        <ele>133.3</ele>
      </trkpt>
      <trkpt lat="48.74513" lon="2.00759">
        <ele>133.2</ele>
      </trkpt>
      <trkpt lat="48.74496" lon="2.00812">
        <ele>133.3</ele>
      </trkpt>
      <trkpt lat="48.74478" lon="2.0085">
        <ele>134</ele>
      </trkpt>
      <trkpt lat="48.74467" lon="2.00872">
        <ele>134.5</ele>
      </trkpt>
      <trkpt lat="48.74443" lon="2.00941">
        <ele>134.5</ele>
      </trkpt>
      <trkpt lat="48.74404" lon="2.01024">
        <ele>136.4</ele>
      </trkpt>
      <trkpt lat="48.74356" lon="2.01133">
        <ele>136.5</ele>
      </trkpt>
      <trkpt lat="48.74329" lon="2.01183">
        <ele>137.5</ele>
      </trkpt>
      <trkpt lat="48.74313" lon="2.01224">
        <ele>137.8</ele>
      </trkpt>
      <trkpt lat="48.74301" lon="2.01241">
        <ele>139</ele>
      </trkpt>
      <trkpt lat="48.74276" lon="2.01337">
        <ele>137.9</ele>
      </trkpt>
      <trkpt lat="48.74268" lon="2.01379">
        <ele>136.5</ele>
        <extensions>
          <visugpx:TrkExtension xmlns:visugpx="https://www.visugpx.com/editgpx/">
            <visugpx:node>8</visugpx:node>
            </visugpx:TrkExtension>
        </extensions>
      </trkpt>
      <trkpt lat="48.74265" lon="2.01392">
        <ele>136.2</ele>
      </trkpt>
      <trkpt lat="48.74253" lon="2.01434">
        <ele>135.4</ele>
      </trkpt>
      <trkpt lat="48.74243" lon="2.01458">
        <ele>134.2</ele>
      </trkpt>
      <trkpt lat="48.74257" lon="2.0165">
        <ele>118.9</ele>
      </trkpt>
      <trkpt lat="48.74273" lon="2.01674">
        <ele>115.4</ele>
      </trkpt>
      <trkpt lat="48.74294" lon="2.01666">
        <ele>112.7</ele>
      </trkpt>
      <trkpt lat="48.74274" lon="2.01714">
        <ele>112.9</ele>
      </trkpt>
      <trkpt lat="48.74263" lon="2.01729">
        <ele>113.5</ele>
      </trkpt>
      <trkpt lat="48.74247" lon="2.01733">
        <ele>115.1</ele>
      </trkpt>
      <trkpt lat="48.74186" lon="2.01746">
        <ele>117.1</ele>
      </trkpt>
      <trkpt lat="48.74058" lon="2.01797">
        <ele>116.7</ele>
      </trkpt>
      <trkpt lat="48.74049" lon="2.01798">
        <ele>115.8</ele>
      </trkpt>
      <trkpt lat="48.74036" lon="2.01785">
        <ele>115.4</ele>
      </trkpt>
      <trkpt lat="48.74013" lon="2.01755">
        <ele>114.2</ele>
      </trkpt>
      <trkpt lat="48.74004" lon="2.01748">
        <ele>113.5</ele>
      </trkpt>
      <trkpt lat="48.73998" lon="2.01748">
        <ele>113</ele>
      </trkpt>
      <trkpt lat="48.73992" lon="2.01758">
        <ele>112.4</ele>
      </trkpt>
      <trkpt lat="48.73976" lon="2.01788">
        <ele>110.8</ele>
      </trkpt>
      <trkpt lat="48.74021" lon="2.01834">
        <ele>110.7</ele>
      </trkpt>
      <trkpt lat="48.74064" lon="2.01864">
        <ele>109.8</ele>
      </trkpt>
      <trkpt lat="48.74126" lon="2.01911">
        <ele>107.6</ele>
      </trkpt>
      <trkpt lat="48.74133" lon="2.01917">
        <ele>107.8</ele>
      </trkpt>
      <trkpt lat="48.74172" lon="2.01941">
        <ele>110</ele>
      </trkpt>
      <trkpt lat="48.74174" lon="2.01942">
        <ele>110.2</ele>
        <extensions>
          <visugpx:TrkExtension xmlns:visugpx="https://www.visugpx.com/editgpx/">
            <visugpx:node>9</visugpx:node>
            </visugpx:TrkExtension>
        </extensions>
      </trkpt>
      <trkpt lat="48.74458" lon="2.01804">
        <ele>142.39997</ele>
        <time>2022-05-07T12:33:17.502Z</time>
        <extensions>
          <visugpx:TrkExtension xmlns:visugpx="https://www.visugpx.com/editgpx/">
            <visugpx:node>21</visugpx:node>
            </visugpx:TrkExtension>
        </extensions>
      </trkpt>
      <trkpt lat="48.7454" lon="2.01896">
        <ele>150.896741</ele>
        <time>2022-05-07T12:35:35.293Z</time>
      </trkpt>
      <trkpt lat="48.74556" lon="2.0193">
        <ele>153.197165</ele>
        <time>2022-05-07T12:36:10.220Z</time>
      </trkpt>
      <trkpt lat="48.74575" lon="2.02025">
        <ele>158.191671</ele>
        <time>2022-05-07T12:37:31.994Z</time>
      </trkpt>
      <trkpt lat="48.74619" lon="2.02159">
        <ele>161.01026</ele>
        <time>2022-05-07T12:39:21.904Z</time>
      </trkpt>
      <trkpt lat="48.74627" lon="2.02207">
        <ele>161.952389</ele>
        <time>2022-05-07T12:39:56.389Z</time>
      </trkpt>
      <trkpt lat="48.74638" lon="2.02247">
        <ele>162.768269</ele>
        <time>2022-05-07T12:40:25.471Z</time>
      </trkpt>
      <trkpt lat="48.74649" lon="2.02212">
        <ele>163.112001</ele>
        <time>2022-05-07T12:40:51.755Z</time>
      </trkpt>
      <trkpt lat="48.74771" lon="2.01828">
        <ele>164.41519</ele>
        <time>2022-05-07T12:45:36.320Z</time>
      </trkpt>
      <trkpt lat="48.74773" lon="2.01819">
        <ele>164.45053</ele>
        <time>2022-05-07T12:45:42.605Z</time>
      </trkpt>
      <trkpt lat="48.74793" lon="2.01755">
        <ele>164.726724</ele>
        <time>2022-05-07T12:46:31.359Z</time>
      </trkpt>
      <trkpt lat="48.74816" lon="2.01652">
        <ele>165.233084</ele>
        <time>2022-05-07T12:47:45.299Z</time>
      </trkpt>
      <trkpt lat="48.74831" lon="2.01643">
        <ele>165.354151</ele>
        <time>2022-05-07T12:48:02.345Z</time>
      </trkpt>
      <trkpt lat="48.74843" lon="2.01615">
        <ele>165.514256</ele>
        <time>2022-05-07T12:48:25.248Z</time>
      </trkpt>
      <trkpt lat="48.7485" lon="2.01575">
        <ele>165.711686</ele>
        <time>2022-05-07T12:48:53.045Z</time>
      </trkpt>
      <trkpt lat="48.74851" lon="2.0137">
        <ele>166.351907</ele>
        <time>2022-05-07T12:51:09.155Z</time>
      </trkpt>
      <trkpt lat="48.74886" lon="2.01183">
        <ele>167.033941</ele>
        <time>2022-05-07T12:53:18.544Z</time>
      </trkpt>
      <trkpt lat="48.7496" lon="2.00897">
        <ele>169.668107</ele>
        <time>2022-05-07T12:56:52.632Z</time>
      </trkpt>
      <trkpt lat="48.7497" lon="2.00857">
        <ele>170.078716</ele>
        <time>2022-05-07T12:57:22.864Z</time>
      </trkpt>
      <trkpt lat="48.74983" lon="2.00823">
        <ele>170.45341</ele>
        <time>2022-05-07T12:57:50.074Z</time>
      </trkpt>
      <trkpt lat="48.75033" lon="2.0074">
        <ele>171.511855</ele>
        <time>2022-05-07T12:59:07.924Z</time>
      </trkpt>
      <trkpt lat="48.75147" lon="2.00605">
        <ele>172.427108</ele>
        <time>2022-05-07T13:01:36.342Z</time>
      </trkpt>
      <trkpt lat="48.75204" lon="2.0054">
        <ele>172.644472</ele>
        <time>2022-05-07T13:02:47.667Z</time>
      </trkpt>
      <trkpt lat="48.75247" lon="2.00481">
        <ele>172.653741</ele>
        <time>2022-05-07T13:03:45.964Z</time>
      </trkpt>
      <trkpt lat="48.75284" lon="2.0044">
        <ele>172.661034</ele>
        <time>2022-05-07T13:04:31.930Z</time>
      </trkpt>
      <trkpt lat="48.75394" lon="2.00312">
        <ele>172.694839</ele>
        <time>2022-05-07T13:06:50.739Z</time>
        <extensions>
          <visugpx:TrkExtension xmlns:visugpx="https://www.visugpx.com/editgpx/">
            <visugpx:node>21</visugpx:node>
            </visugpx:TrkExtension>
        </extensions>
      </trkpt>
      <trkpt lat="48.75763" lon="2.01325">
        <ele>163</ele>
        <extensions>
          <visugpx:TrkExtension xmlns:visugpx="https://www.visugpx.com/editgpx/">
            <visugpx:node>23</visugpx:node>
            </visugpx:TrkExtension>
        </extensions>
      </trkpt>
      <trkpt lat="48.7593" lon="2.01776">
        <ele>159</ele>
      </trkpt>
      <trkpt lat="48.7596" lon="2.01859">
        <ele>158.6</ele>
      </trkpt>
      <trkpt lat="48.75963" lon="2.01869">
        <ele>158.7</ele>
      </trkpt>
      <trkpt lat="48.76025" lon="2.0204">
        <ele>161.8</ele>
      </trkpt>
      <trkpt lat="48.76027" lon="2.02046">
        <ele>161.9</ele>
      </trkpt>
      <trkpt lat="48.76027" lon="2.0206">
        <ele>161.9</ele>
        <extensions>
          <visugpx:TrkExtension xmlns:visugpx="https://www.visugpx.com/editgpx/">
            <visugpx:node>24</visugpx:node>
            </visugpx:TrkExtension>
        </extensions>
      </trkpt>
      <trkpt lat="48.76129" lon="2.01478">
        <ele>163.8</ele>
        <extensions>
          <visugpx:TrkExtension xmlns:visugpx="https://www.visugpx.com/editgpx/">
            <visugpx:node>22</visugpx:node>
            </visugpx:TrkExtension>
        </extensions>
      </trkpt>
      <trkpt lat="48.76236" lon="2.01152">
        <ele>161.2</ele>
        <extensions>
          <visugpx:TrkExtension xmlns:visugpx="https://www.visugpx.com/editgpx/">
            <visugpx:node>21</visugpx:node>
            </visugpx:TrkExtension>
        </extensions>
      </trkpt>
      <trkpt lat="48.76244" lon="2.01098">
        <ele>161</ele>
      </trkpt>
      <trkpt lat="48.76277" lon="2.00921">
        <ele>161.8</ele>
      </trkpt>
      <trkpt lat="48.7628" lon="2.00893">
        <ele>162</ele>
      </trkpt>
      <trkpt lat="48.76279" lon="2.00887">
        <ele>162</ele>
        <extensions>
          <visugpx:TrkExtension xmlns:visugpx="https://www.visugpx.com/editgpx/">
            <visugpx:node>8</visugpx:node>
            </visugpx:TrkExtension>
        </extensions>
      </trkpt>
      <trkpt lat="48.76275" lon="2.00876">
        <ele>162</ele>
      </trkpt>
      <trkpt lat="48.76204" lon="2.00821">
        <ele>162.6</ele>
      </trkpt>
      <trkpt lat="48.76162" lon="2.00779">
        <ele>163</ele>
      </trkpt>
      <trkpt lat="48.7611" lon="2.00731">
        <ele>162</ele>
      </trkpt>
      <trkpt lat="48.76114" lon="2.00724">
        <ele>162.1</ele>
        <extensions>
          <visugpx:TrkExtension xmlns:visugpx="https://www.visugpx.com/editgpx/">
            <visugpx:node>9</visugpx:node>
            </visugpx:TrkExtension>
        </extensions>
      </trkpt>
      <trkpt lat="48.76138" lon="2.00688">
        <ele>163</ele>
      </trkpt>
      <trkpt lat="48.76341" lon="2.00352">
        <ele>165.7</ele>
      </trkpt>
      <trkpt lat="48.76343" lon="2.00357">
        <ele>165.7</ele>
        <extensions>
          <visugpx:TrkExtension xmlns:visugpx="https://www.visugpx.com/editgpx/">
            <visugpx:node>10</visugpx:node>
            </visugpx:TrkExtension>
        </extensions>
      </trkpt>
      <trkpt lat="48.76341" lon="2.00352">
        <ele>165.7</ele>
      </trkpt>
      <trkpt lat="48.76276" lon="2.00194">
        <ele>166</ele>
      </trkpt>
      <trkpt lat="48.7627" lon="2.00177">
        <ele>166</ele>
        <extensions>
          <visugpx:TrkExtension xmlns:visugpx="https://www.visugpx.com/editgpx/">
            <visugpx:node>11</visugpx:node>
            </visugpx:TrkExtension>
        </extensions>
      </trkpt>
      <trkpt lat="48.76276" lon="2.00194">
        <ele>166</ele>
      </trkpt>
      <trkpt lat="48.76258" lon="2.0018">
        <ele>166</ele>
      </trkpt>
      <trkpt lat="48.76214" lon="2.00218">
        <ele>165.1</ele>
      </trkpt>
      <trkpt lat="48.76198" lon="2.00243">
        <ele>165.1</ele>
      </trkpt>
      <trkpt lat="48.76185" lon="2.00244">
        <ele>165</ele>
      </trkpt>
      <trkpt lat="48.76124" lon="2.00206">
        <ele>164.3</ele>
      </trkpt>
      <trkpt lat="48.76014" lon="2.00132">
        <ele>163</ele>
      </trkpt>
      <trkpt lat="48.76014" lon="2.00138">
        <ele>163</ele>
        <extensions>
          <visugpx:TrkExtension xmlns:visugpx="https://www.visugpx.com/editgpx/">
            <visugpx:node>12</visugpx:node>
            </visugpx:TrkExtension>
        </extensions>
      </trkpt>
      <trkpt lat="48.76014" lon="2.00132">
        <ele>163</ele>
      </trkpt>
      <trkpt lat="48.76018" lon="2.00102">
        <ele>163</ele>
      </trkpt>
      <trkpt lat="48.76008" lon="2.00085">
        <ele>163</ele>
      </trkpt>
      <trkpt lat="48.76005" lon="2.0006">
        <ele>163</ele>
      </trkpt>
      <trkpt lat="48.76015" lon="2.00039">
        <ele>163.6</ele>
      </trkpt>
      <trkpt lat="48.76009" lon="2.00024">
        <ele>164</ele>
      </trkpt>
      <trkpt lat="48.76012" lon="2.00016">
        <ele>164</ele>
      </trkpt>
      <trkpt lat="48.76014" lon="1.99999">
        <ele>164</ele>
      </trkpt>
      <trkpt lat="48.76027" lon="1.99979">
        <ele>164</ele>
      </trkpt>
      <trkpt lat="48.76029" lon="1.99969">
        <ele>164</ele>
      </trkpt>
      <trkpt lat="48.7602" lon="1.99958">
        <ele>164</ele>
      </trkpt>
      <trkpt lat="48.7601" lon="1.99954">
        <ele>164</ele>
      </trkpt>
      <trkpt lat="48.76015" lon="1.99933">
        <ele>164</ele>
      </trkpt>
      <trkpt lat="48.76024" lon="1.99913">
        <ele>164</ele>
      </trkpt>
      <trkpt lat="48.7602" lon="1.99902">
        <ele>164</ele>
      </trkpt>
      <trkpt lat="48.76012" lon="1.99894">
        <ele>164</ele>
      </trkpt>
      <trkpt lat="48.76008" lon="1.99883">
        <ele>164</ele>
      </trkpt>
      <trkpt lat="48.76" lon="1.99877">
        <ele>164</ele>
      </trkpt>
      <trkpt lat="48.75986" lon="1.99845">
        <ele>164</ele>
      </trkpt>
      <trkpt lat="48.75985" lon="1.99813">
        <ele>164</ele>
      </trkpt>
      <trkpt lat="48.76018" lon="1.99755">
        <ele>164</ele>
        <extensions>
          <visugpx:TrkExtension xmlns:visugpx="https://www.visugpx.com/editgpx/">
            <visugpx:node>13</visugpx:node>
            </visugpx:TrkExtension>
        </extensions>
      </trkpt>
      <trkpt lat="48.76019" lon="1.99752">
        <ele>164</ele>
      </trkpt>
      <trkpt lat="48.7602" lon="1.99746">
        <ele>163.9</ele>
      </trkpt>
      <trkpt lat="48.76015" lon="1.9974">
        <ele>163.8</ele>
      </trkpt>
      <trkpt lat="48.76014" lon="1.99721">
        <ele>163.5</ele>
      </trkpt>
      <trkpt lat="48.76006" lon="1.99698">
        <ele>163.1</ele>
      </trkpt>
      <trkpt lat="48.75986" lon="1.99688">
        <ele>163.5</ele>
      </trkpt>
      <trkpt lat="48.75979" lon="1.99662">
        <ele>163.8</ele>
      </trkpt>
      <trkpt lat="48.75986" lon="1.99639">
        <ele>164</ele>
      </trkpt>
      <trkpt lat="48.75985" lon="1.99627">
        <ele>164.2</ele>
      </trkpt>
      <trkpt lat="48.75975" lon="1.99617">
        <ele>164.7</ele>
        <extensions>
          <visugpx:TrkExtension xmlns:visugpx="https://www.visugpx.com/editgpx/">
            <visugpx:node>14</visugpx:node>
            </visugpx:TrkExtension>
        </extensions>
      </trkpt>
      <trkpt lat="48.75959" lon="1.99629">
        <ele>164.7</ele>
      </trkpt>
      <trkpt lat="48.76004" lon="1.99569">
        <ele>165.7</ele>
      </trkpt>
      <trkpt lat="48.76003" lon="1.99568">
        <ele>165.7</ele>
      </trkpt>
      <trkpt lat="48.76004" lon="1.99569">
        <ele>165.7</ele>
      </trkpt>
      <trkpt lat="48.76004" lon="1.9957">
        <ele>165.6</ele>
        <extensions>
          <visugpx:TrkExtension xmlns:visugpx="https://www.visugpx.com/editgpx/">
            <visugpx:node>17</visugpx:node>
            </visugpx:TrkExtension>
        </extensions>
      </trkpt>
      <trkpt lat="48.76004" lon="1.99569">
        <ele>165.7</ele>
      </trkpt>
      <trkpt lat="48.75921" lon="1.99363">
        <ele>167</ele>
      </trkpt>
      <trkpt lat="48.7568" lon="1.98763">
        <ele>168.5</ele>
      </trkpt>
      <trkpt lat="48.75423" lon="1.98155">
        <ele>170.2</ele>
      </trkpt>
      <trkpt lat="48.75591" lon="1.97919">
        <ele>173</ele>
      </trkpt>
      <trkpt lat="48.75612" lon="1.97881">
        <ele>173</ele>
      </trkpt>
      <trkpt lat="48.75622" lon="1.97863">
        <ele>173</ele>
      </trkpt>
      <trkpt lat="48.75634" lon="1.97837">
        <ele>172.8</ele>
      </trkpt>
      <trkpt lat="48.75637" lon="1.97803">
        <ele>172</ele>
      </trkpt>
      <trkpt lat="48.75622" lon="1.9728">
        <ele>170.4</ele>
        <extensions>
          <visugpx:TrkExtension xmlns:visugpx="https://www.visugpx.com/editgpx/">
            <visugpx:node>6</visugpx:node>
            </visugpx:TrkExtension>
        </extensions>
      </trkpt>
      <trkpt lat="48.75652" lon="1.97285">
        <ele>171</ele>
      </trkpt>
      <trkpt lat="48.7568" lon="1.97274">
        <ele>171</ele>
      </trkpt>
      <trkpt lat="48.75695" lon="1.97284">
        <ele>171</ele>
      </trkpt>
      <trkpt lat="48.75724" lon="1.97284">
        <ele>171.1</ele>
      </trkpt>
      <trkpt lat="48.7575" lon="1.97279">
        <ele>172</ele>
      </trkpt>
      <trkpt lat="48.75759" lon="1.97272">
        <ele>171.9</ele>
        <extensions>
          <visugpx:TrkExtension xmlns:visugpx="https://www.visugpx.com/editgpx/">
            <visugpx:node>18</visugpx:node>
            </visugpx:TrkExtension>
        </extensions>
      </trkpt>
      <trkpt lat="48.7578" lon="1.97255">
        <ele>172</ele>
      </trkpt>
      <trkpt lat="48.75795" lon="1.97231">
        <ele>172</ele>
      </trkpt>
      <trkpt lat="48.75801" lon="1.97213">
        <ele>172</ele>
      </trkpt>
      <trkpt lat="48.75833" lon="1.97195">
        <ele>173</ele>
      </trkpt>
      <trkpt lat="48.75858" lon="1.97189">
        <ele>173</ele>
      </trkpt>
      <trkpt lat="48.75885" lon="1.97188">
        <ele>173</ele>
      </trkpt>
      <trkpt lat="48.75906" lon="1.97194">
        <ele>173</ele>
      </trkpt>
      <trkpt lat="48.75919" lon="1.97194">
        <ele>173</ele>
        <extensions>
          <visugpx:TrkExtension xmlns:visugpx="https://www.visugpx.com/editgpx/">
            <visugpx:node>19</visugpx:node>
            </visugpx:TrkExtension>
        </extensions>
      </trkpt>
      <trkpt lat="48.75926" lon="1.97194">
        <ele>173</ele>
      </trkpt>
      <trkpt lat="48.7595" lon="1.97179">
        <ele>173.2</ele>
      </trkpt>
      <trkpt lat="48.7596" lon="1.97168">
        <ele>173.6</ele>
      </trkpt>
      <trkpt lat="48.75962" lon="1.9717">
        <ele>173.6</ele>
        <extensions>
          <visugpx:TrkExtension xmlns:visugpx="https://www.visugpx.com/editgpx/">
            <visugpx:node>20</visugpx:node>
            </visugpx:TrkExtension>
        </extensions>
      </trkpt>
      <trkpt lat="48.75768" lon="1.96966">
        <ele>171</ele>
        <extensions>
          <visugpx:TrkExtension xmlns:visugpx="https://www.visugpx.com/editgpx/">
            <visugpx:node>6</visugpx:node>
            </visugpx:TrkExtension>
        </extensions>
      </trkpt>
      <trkpt lat="48.75679" lon="1.96874">
        <ele>169.2</ele>
      </trkpt>
      <trkpt lat="48.75656" lon="1.96843">
        <ele>169</ele>
      </trkpt>
      <trkpt lat="48.75639" lon="1.96828">
        <ele>168.8</ele>
      </trkpt>
      <trkpt lat="48.75628" lon="1.96827">
        <ele>168.5</ele>
      </trkpt>
      <trkpt lat="48.75616" lon="1.96834">
        <ele>168.2</ele>
      </trkpt>
      <trkpt lat="48.75606" lon="1.96847">
        <ele>168</ele>
      </trkpt>
      <trkpt lat="48.75599" lon="1.96844">
        <ele>168</ele>
      </trkpt>
      <trkpt lat="48.75594" lon="1.96845">
        <ele>168</ele>
        <extensions>
          <visugpx:TrkExtension xmlns:visugpx="https://www.visugpx.com/editgpx/">
            <visugpx:node>5</visugpx:node>
            </visugpx:TrkExtension>
        </extensions>
      </trkpt>
    </trkseg>
  </trk>
</gpx>